sensor_id;sensor_type;location;lat;lon;timestamp;pressure;altitude;pressure_sealevel;temperature;humidity
42361;BME280;54542;51.562;0.004;2022-08-11T01:36:50;102272.06;;;18.05;46.41
42361;BME280;54542;51.562;0.004;2022-08-11T01:39:37;102269.80;;;15.82;45.17
42361;BME280;54542;51.562;0.004;2022-08-11T01:44:07;102265.55;;;17.98;44.06
42361;BME280;54542;51.562;0.004;2022-08-11T01:46:44;102265.87;;;16.55;44.02
42361;BME280;54542;51.562;0.004;2022-08-11T01:49:20;102264.20;;;16.59;44.07
42361;BME280;54542;51.562;0.004;2022-08-11T01:52:06;102260.97;;;16.57;43.79
42361;BME280;54542;51.562;0.004;2022-08-11T01:54:41;102261.87;;;16.63;43.93
42361;BME280;54542;51.562;0.004;2022-08-11T01:57:20;102259.84;;;16.61;43.85
42361;BME280;54542;51.562;0.004;2022-08-11T02:00:02;102261.87;;;16.50;44.21
42361;BME280;54542;51.562;0.004;2022-08-11T02:02:38;102258.87;;;16.47;44.62
42361;BME280;54542;51.562;0.004;2022-08-11T02:05:26;102260.95;;;16.42;44.56
42361;BME280;54542;51.562;0.004;2022-08-11T02:08:01;102264.03;;;16.84;44.75
42361;BME280;54542;51.562;0.004;2022-08-11T02:10:37;102262.35;;;16.75;44.71
42361;BME280;54542;51.562;0.004;2022-08-11T02:13:15;102259.16;;;16.20;44.89
42361;BME280;54542;51.562;0.004;2022-08-11T02:15:51;102256.08;;;16.15;45.13
42361;BME280;54542;51.562;0.004;2022-08-11T02:18:27;102257.00;;;16.15;44.76
42361;BME280;54542;51.562;0.004;2022-08-11T02:21:02;102255.86;;;16.64;45.09
42361;BME280;54542;51.562;0.004;2022-08-11T02:23:42;102252.19;;;16.10;45.29
42361;BME280;54542;51.562;0.004;2022-08-11T02:26:17;102250.06;;;16.14;45.43
42361;BME280;54542;51.562;0.004;2022-08-11T02:28:55;102246.67;;;16.08;46.03
42361;BME280;54542;51.562;0.004;2022-08-11T02:31:37;102244.95;;;16.50;46.09
42361;BME280;54542;51.562;0.004;2022-08-11T02:34:14;102245.10;;;16.50;45.92
42361;BME280;54542;51.562;0.004;2022-08-11T02:36:54;102244.57;;;16.39;46.31
42361;BME280;54542;51.562;0.004;2022-08-11T02:39:30;102242.63;;;16.37;46.00
42361;BME280;54542;51.562;0.004;2022-08-11T02:42:09;102246.25;;;16.39;46.50
42361;BME280;54542;51.562;0.004;2022-08-11T02:44:45;102250.11;;;16.44;46.31
42361;BME280;54542;51.562;0.004;2022-08-11T02:47:30;102249.72;;;16.41;46.74
42361;BME280;54542;51.562;0.004;2022-08-11T02:50:03;102247.28;;;15.83;46.60
42361;BME280;54542;51.562;0.004;2022-08-11T02:52:39;102247.85;;;16.30;46.80
42361;BME280;54542;51.562;0.004;2022-08-11T02:55:17;102251.68;;;15.75;47.32
42361;BME280;54542;51.562;0.004;2022-08-11T02:57:50;102251.31;;;15.84;47.03
42361;BME280;54542;51.562;0.004;2022-08-11T03:00:19;102248.14;;;16.28;47.56
42361;BME280;54542;51.562;0.004;2022-08-11T03:03:14;102244.93;;;16.30;47.09
42361;BME280;54542;51.562;0.004;2022-08-11T03:05:53;102243.53;;;15.76;47.12
42361;BME280;54542;51.562;0.004;2022-08-11T03:08:30;102244.00;;;16.26;47.19
42361;BME280;54542;51.562;0.004;2022-08-11T03:11:09;102241.42;;;16.28;47.49
42361;BME280;54542;51.562;0.004;2022-08-11T03:13:42;102239.40;;;15.86;48.28
42361;BME280;54542;51.562;0.004;2022-08-11T03:16:17;102242.68;;;16.38;47.54
42361;BME280;54542;51.562;0.004;2022-08-11T03:18:54;102242.01;;;16.44;47.51
42361;BME280;54542;51.562;0.004;2022-08-11T03:21:28;102246.07;;;15.86;48.03
42361;BME280;54542;51.562;0.004;2022-08-11T03:24:02;102245.31;;;16.36;48.12
42361;BME280;54542;51.562;0.004;2022-08-11T03:26:34;102245.34;;;16.31;48.04
42361;BME280;54542;51.562;0.004;2022-08-11T03:29:10;102247.46;;;16.23;48.36
42361;BME280;54542;51.562;0.004;2022-08-11T03:31:45;102246.21;;;16.18;48.79
42361;BME280;54542;51.562;0.004;2022-08-11T03:34:19;102243.21;;;15.71;48.81
42361;BME280;54542;51.562;0.004;2022-08-11T03:37:05;102238.90;;;16.17;48.41
42361;BME280;54542;51.562;0.004;2022-08-11T03:39:49;102236.08;;;16.20;48.87
42361;BME280;54542;51.562;0.004;2022-08-11T03:42:27;102237.30;;;16.15;48.95
42361;BME280;54542;51.562;0.004;2022-08-11T03:45:04;102236.74;;;16.12;48.93
42361;BME280;54542;51.562;0.004;2022-08-11T03:47:43;102239.41;;;16.05;49.35
42361;BME280;54542;51.562;0.004;2022-08-11T03:50:23;102236.85;;;16.05;49.41
42361;BME280;54542;51.562;0.004;2022-08-11T03:53:01;102235.38;;;16.07;48.87
42361;BME280;54542;51.562;0.004;2022-08-11T03:58:56;102232.40;;;15.43;49.74
42361;BME280;54542;51.562;0.004;2022-08-11T04:02:02;102230.53;;;15.84;49.36
42361;BME280;54542;51.562;0.004;2022-08-11T04:05:31;102227.25;;;17.55;49.71
42361;BME280;54542;51.562;0.004;2022-08-11T04:09:01;102225.35;;;15.64;49.66
42361;BME280;54542;51.562;0.004;2022-08-11T04:11:52;102224.26;;;16.08;49.54
42361;BME280;54542;51.562;0.004;2022-08-11T04:14:42;102218.84;;;15.73;50.05
42361;BME280;54542;51.562;0.004;2022-08-11T04:17:41;102213.20;;;16.10;50.05
42361;BME280;54542;51.562;0.004;2022-08-11T04:20:28;102212.96;;;16.13;50.19
42361;BME280;54542;51.562;0.004;2022-08-11T04:23:17;102213.93;;;15.70;50.34
42361;BME280;54542;51.562;0.004;2022-08-11T04:26:45;102214.26;;;17.39;50.67
42361;BME280;54542;51.562;0.004;2022-08-11T04:29:32;102213.54;;;16.05;50.57
42361;BME280;54542;51.562;0.004;2022-08-11T04:32:15;102207.78;;;15.12;50.75
42361;BME280;54542;51.562;0.004;2022-08-11T04:35:07;102209.04;;;16.04;50.56
42361;BME280;54542;51.562;0.004;2022-08-11T04:38:25;102210.25;;;17.37;50.88
42361;BME280;54542;51.562;0.004;2022-08-11T04:41:22;102208.99;;;15.97;50.67
42361;BME280;54542;51.562;0.004;2022-08-11T04:45:38;102208.69;;;17.28;50.92
42361;BME280;54542;51.562;0.004;2022-08-11T04:48:31;102211.26;;;15.42;51.15
42361;BME280;54542;51.562;0.004;2022-08-11T04:51:38;102212.17;;;15.47;51.13
42361;BME280;54542;51.562;0.004;2022-08-11T04:54:24;102210.35;;;15.53;51.19
42361;BME280;54542;51.562;0.004;2022-08-11T04:57:01;102212.56;;;15.50;51.43
42361;BME280;54542;51.562;0.004;2022-08-11T05:00:06;102208.05;;;17.26;51.30
42361;BME280;54542;51.562;0.004;2022-08-11T05:03:11;102208.36;;;15.50;51.34
42361;BME280;54542;51.562;0.004;2022-08-11T05:05:59;102210.04;;;15.51;51.11
42361;BME280;54542;51.562;0.004;2022-08-11T05:09:18;102212.74;;;16.84;51.44
42361;BME280;54542;51.562;0.004;2022-08-11T05:12:27;102217.02;;;17.28;51.04
42361;BME280;54542;51.562;0.004;2022-08-11T05:14:57;102220.06;;;15.45;51.02
42361;BME280;54542;51.562;0.004;2022-08-11T05:17:34;102220.39;;;15.94;51.08
42361;BME280;54542;51.562;0.004;2022-08-11T05:20:07;102223.72;;;15.58;50.80
42361;BME280;54542;51.562;0.004;2022-08-11T05:22:35;102226.40;;;15.59;50.92
42361;BME280;54542;51.562;0.004;2022-08-11T05:25:08;102227.95;;;15.60;50.79
42361;BME280;54542;51.562;0.004;2022-08-11T05:27:38;102226.65;;;15.72;50.76
42361;BME280;54542;51.562;0.004;2022-08-11T05:30:09;102224.55;;;15.76;50.89
42361;BME280;54542;51.562;0.004;2022-08-11T05:32:39;102227.49;;;15.83;50.93
42361;BME280;54542;51.562;0.004;2022-08-11T05:35:09;102228.80;;;15.94;50.94
42361;BME280;54542;51.562;0.004;2022-08-11T05:37:41;102229.66;;;15.48;51.22
42361;BME280;54542;51.562;0.004;2022-08-11T05:40:11;102233.65;;;16.06;51.15
42361;BME280;54542;51.562;0.004;2022-08-11T05:42:46;102235.13;;;16.10;51.04
42361;BME280;54542;51.562;0.004;2022-08-11T05:45:16;102237.40;;;16.19;51.19
42361;BME280;54542;51.562;0.004;2022-08-11T05:47:48;102239.66;;;16.11;51.50
42361;BME280;54542;51.562;0.004;2022-08-11T05:50:17;102241.64;;;16.09;51.77
42361;BME280;54542;51.562;0.004;2022-08-11T05:52:45;102240.80;;;15.78;51.95
42361;BME280;54542;51.562;0.004;2022-08-11T05:55:13;102240.76;;;15.79;51.98
42361;BME280;54542;51.562;0.004;2022-08-11T05:57:42;102244.31;;;16.32;51.56
42361;BME280;54542;51.562;0.004;2022-08-11T06:00:10;102242.56;;;15.86;51.76
42361;BME280;54542;51.562;0.004;2022-08-11T06:02:40;102245.42;;;15.92;51.93
42361;BME280;54542;51.562;0.004;2022-08-11T06:05:09;102245.31;;;16.44;52.08
42361;BME280;54542;51.562;0.004;2022-08-11T06:07:37;102247.14;;;15.99;52.54
42361;BME280;54542;51.562;0.004;2022-08-11T06:10:05;102244.57;;;16.60;52.38
42361;BME280;54542;51.562;0.004;2022-08-11T06:12:34;102245.40;;;16.18;52.48
42361;BME280;54542;51.562;0.004;2022-08-11T06:15:06;102244.96;;;16.32;52.52
42361;BME280;54542;51.562;0.004;2022-08-11T06:17:45;102241.17;;;16.43;53.16
42361;BME280;54542;51.562;0.004;2022-08-11T06:20:14;102239.83;;;16.39;53.69
42361;BME280;54542;51.562;0.004;2022-08-11T06:22:44;102237.95;;;16.46;54.20
42361;BME280;54542;51.562;0.004;2022-08-11T06:25:11;102236.62;;;16.65;53.68
42361;BME280;54542;51.562;0.004;2022-08-11T06:27:42;102231.92;;;16.77;53.20
42361;BME280;54542;51.562;0.004;2022-08-11T06:30:10;102227.01;;;16.80;53.56
42361;BME280;54542;51.562;0.004;2022-08-11T06:32:42;102228.85;;;16.87;54.49
42361;BME280;54542;51.562;0.004;2022-08-11T06:35:18;102230.23;;;16.40;55.88
42361;BME280;54542;51.562;0.004;2022-08-11T06:38:01;102227.58;;;16.86;54.48
42361;BME280;54542;51.562;0.004;2022-08-11T06:40:42;102225.71;;;16.70;53.66
42361;BME280;54542;51.562;0.004;2022-08-11T06:43:17;102224.77;;;16.68;54.29
42361;BME280;54542;51.562;0.004;2022-08-11T06:45:52;102223.60;;;17.16;54.29
42361;BME280;54542;51.562;0.004;2022-08-11T06:48:23;102222.63;;;16.95;54.13
42361;BME280;54542;51.562;0.004;2022-08-11T06:50:55;102214.60;;;16.90;54.86
42361;BME280;54542;51.562;0.004;2022-08-11T06:53:23;102214.49;;;17.11;54.81
42361;BME280;54542;51.562;0.004;2022-08-11T06:55:50;102217.06;;;17.28;54.26
42361;BME280;54542;51.562;0.004;2022-08-11T06:58:28;102220.20;;;17.41;54.21
42361;BME280;54542;51.562;0.004;2022-08-11T07:00:58;102220.61;;;17.54;54.58
42361;BME280;54542;51.562;0.004;2022-08-11T07:03:27;102222.58;;;17.67;54.33
42361;BME280;54542;51.562;0.004;2022-08-11T07:06:07;102223.21;;;17.74;54.21
42361;BME280;54542;51.562;0.004;2022-08-11T07:09:31;102224.58;;;17.60;56.05
42361;BME280;54542;51.562;0.004;2022-08-11T07:12:05;102226.94;;;17.80;55.96
42361;BME280;54542;51.562;0.004;2022-08-11T07:14:48;102228.50;;;17.74;56.86
42361;BME280;54542;51.562;0.004;2022-08-11T07:17:22;102227.36;;;17.87;57.42
42361;BME280;54542;51.562;0.004;2022-08-11T07:19:53;102228.26;;;17.21;56.58
42361;BME280;54542;51.562;0.004;2022-08-11T07:22:22;102228.95;;;17.60;58.82
42361;BME280;54542;51.562;0.004;2022-08-11T07:24:56;102228.15;;;18.14;57.51
42361;BME280;54542;51.562;0.004;2022-08-11T07:27:31;102224.26;;;18.05;56.62
42361;BME280;54542;51.562;0.004;2022-08-11T07:30:05;102224.37;;;18.28;56.36
42361;BME280;54542;51.562;0.004;2022-08-11T07:32:40;102222.23;;;18.27;56.22
42361;BME280;54542;51.562;0.004;2022-08-11T07:35:14;102221.02;;;18.24;56.11
42361;BME280;54542;51.562;0.004;2022-08-11T07:37:46;102220.97;;;17.30;58.33
42361;BME280;54542;51.562;0.004;2022-08-11T07:40:13;102219.99;;;17.64;57.54
42361;BME280;54542;51.562;0.004;2022-08-11T07:42:46;102215.75;;;18.20;56.43
42361;BME280;54542;51.562;0.004;2022-08-11T07:45:14;102213.52;;;18.44;55.96
42361;BME280;54542;51.562;0.004;2022-08-11T07:47:43;102216.33;;;18.49;55.73
42361;BME280;54542;51.562;0.004;2022-08-11T07:50:13;102222.63;;;18.79;55.35
42361;BME280;54542;51.562;0.004;2022-08-11T07:52:41;102225.08;;;18.90;55.42
42361;BME280;54542;51.562;0.004;2022-08-11T07:55:12;102229.39;;;19.06;55.53
42361;BME280;54542;51.562;0.004;2022-08-11T07:57:42;102229.98;;;19.14;55.58
42361;BME280;54542;51.562;0.004;2022-08-11T08:00:10;102228.42;;;19.02;55.45
42361;BME280;54542;51.562;0.004;2022-08-11T08:02:39;102225.37;;;18.82;56.18
42361;BME280;54542;51.562;0.004;2022-08-11T08:05:07;102226.00;;;18.83;55.81
42361;BME280;54542;51.562;0.004;2022-08-11T08:07:36;102229.94;;;19.26;55.54
42361;BME280;54542;51.562;0.004;2022-08-11T08:10:05;102229.30;;;18.53;56.50
42361;BME280;54542;51.562;0.004;2022-08-11T08:12:34;102235.28;;;19.21;55.44
42361;BME280;54542;51.562;0.004;2022-08-11T08:15:06;102236.42;;;18.85;55.44
42361;BME280;54542;51.562;0.004;2022-08-11T08:17:34;102234.73;;;19.24;55.93
42361;BME280;54542;51.562;0.004;2022-08-11T08:20:04;102234.81;;;19.21;54.68
42361;BME280;54542;51.562;0.004;2022-08-11T08:22:31;102232.22;;;19.21;55.34
42361;BME280;54542;51.562;0.004;2022-08-11T08:24:59;102230.77;;;18.84;54.40
42361;BME280;54542;51.562;0.004;2022-08-11T08:27:28;102230.91;;;19.56;54.35
42361;BME280;54542;51.562;0.004;2022-08-11T08:29:56;102232.22;;;20.00;54.06
42361;BME280;54542;51.562;0.004;2022-08-11T08:32:25;102230.79;;;19.62;54.09
42361;BME280;54542;51.562;0.004;2022-08-11T08:34:54;102231.13;;;19.92;53.51
42361;BME280;54542;51.562;0.004;2022-08-11T08:37:24;102223.32;;;19.33;53.34
42361;BME280;54542;51.562;0.004;2022-08-11T08:39:52;102217.40;;;19.27;53.35
42361;BME280;54542;51.562;0.004;2022-08-11T08:42:23;102215.04;;;19.19;52.94
42361;BME280;54542;51.562;0.004;2022-08-11T08:44:55;102215.89;;;19.63;51.91
42361;BME280;54542;51.562;0.004;2022-08-11T08:47:25;102212.55;;;19.68;51.25
42361;BME280;54542;51.562;0.004;2022-08-11T08:50:01;102211.95;;;20.21;50.39
42361;BME280;54542;51.562;0.004;2022-08-11T08:52:33;102210.12;;;20.49;50.06
42361;BME280;54542;51.562;0.004;2022-08-11T08:55:04;102208.50;;;20.08;49.88
42361;BME280;54542;51.562;0.004;2022-08-11T08:57:33;102208.88;;;20.36;50.21
42361;BME280;54542;51.562;0.004;2022-08-11T09:00:03;102210.86;;;19.69;49.65
42361;BME280;54542;51.562;0.004;2022-08-11T09:02:31;102208.60;;;20.41;48.73
42361;BME280;54542;51.562;0.004;2022-08-11T09:04:59;102212.74;;;20.44;48.18
42361;BME280;54542;51.562;0.004;2022-08-11T09:07:27;102210.75;;;20.63;47.10
42361;BME280;54542;51.562;0.004;2022-08-11T09:09:57;102206.27;;;20.51;48.23
42361;BME280;54542;51.562;0.004;2022-08-11T09:12:27;102203.53;;;20.89;47.66
42361;BME280;54542;51.562;0.004;2022-08-11T09:14:55;102200.62;;;20.48;47.69
42361;BME280;54542;51.562;0.004;2022-08-11T09:17:24;102207.03;;;20.34;46.88
42361;BME280;54542;51.562;0.004;2022-08-11T09:19:54;102202.48;;;20.19;46.34
42361;BME280;54542;51.562;0.004;2022-08-11T09:22:22;102201.24;;;20.28;45.34
42361;BME280;54542;51.562;0.004;2022-08-11T09:24:51;102197.65;;;20.54;44.57
42361;BME280;54542;51.562;0.004;2022-08-11T09:27:19;102194.13;;;20.82;44.27
42361;BME280;54542;51.562;0.004;2022-08-11T09:29:47;102185.86;;;21.57;42.74
42361;BME280;54542;51.562;0.004;2022-08-11T09:32:18;102187.92;;;21.20;43.12
42361;BME280;54542;51.562;0.004;2022-08-11T09:34:47;102187.01;;;20.54;42.55
42361;BME280;54542;51.562;0.004;2022-08-11T09:37:16;102183.96;;;21.34;42.49
42361;BME280;54542;51.562;0.004;2022-08-11T09:39:44;102184.13;;;21.26;42.84
42361;BME280;54542;51.562;0.004;2022-08-11T09:42:12;102177.28;;;21.97;41.50
42361;BME280;54542;51.562;0.004;2022-08-11T09:44:39;102182.10;;;21.26;41.53
42361;BME280;54542;51.562;0.004;2022-08-11T09:47:07;102179.61;;;21.66;40.86
42361;BME280;54542;51.562;0.004;2022-08-11T09:49:36;102177.60;;;21.44;40.58
42361;BME280;54542;51.562;0.004;2022-08-11T09:52:05;102176.16;;;22.32;39.34
42361;BME280;54542;51.562;0.004;2022-08-11T09:54:33;102168.75;;;21.68;39.49
42361;BME280;54542;51.562;0.004;2022-08-11T09:57:01;102167.82;;;22.27;39.11
42361;BME280;54542;51.562;0.004;2022-08-11T09:59:29;102164.22;;;22.08;39.22
42361;BME280;54542;51.562;0.004;2022-08-11T10:01:57;102162.94;;;22.10;37.93
42361;BME280;54542;51.562;0.004;2022-08-11T10:04:32;102156.04;;;22.85;37.33
42361;BME280;54542;51.562;0.004;2022-08-11T10:07:03;102155.04;;;22.10;38.35
42361;BME280;54542;51.562;0.004;2022-08-11T10:09:37;102152.11;;;22.13;38.18
42361;BME280;54542;51.562;0.004;2022-08-11T10:12:09;102148.18;;;22.87;36.61
42361;BME280;54542;51.562;0.004;2022-08-11T10:14:41;102151.01;;;23.06;36.64
42361;BME280;54542;51.562;0.004;2022-08-11T10:17:10;102146.97;;;23.47;36.26
42361;BME280;54542;51.562;0.004;2022-08-11T10:19:41;102147.19;;;22.50;36.59
42361;BME280;54542;51.562;0.004;2022-08-11T10:22:09;102144.50;;;22.38;36.19
42361;BME280;54542;51.562;0.004;2022-08-11T10:24:36;102137.80;;;22.52;35.68
42361;BME280;54542;51.562;0.004;2022-08-11T10:27:05;102135.20;;;22.86;34.87
42361;BME280;54542;51.562;0.004;2022-08-11T10:29:37;102134.07;;;22.50;34.77
42361;BME280;54542;51.562;0.004;2022-08-11T10:32:07;102134.28;;;23.52;35.06
42361;BME280;54542;51.562;0.004;2022-08-11T10:34:37;102134.94;;;23.00;33.68
42361;BME280;54542;51.562;0.004;2022-08-11T10:37:05;102133.10;;;22.82;33.24
42361;BME280;54542;51.562;0.004;2022-08-11T10:39:33;102132.45;;;24.15;32.84
42361;BME280;54542;51.562;0.004;2022-08-11T10:42:02;102130.28;;;23.44;32.30
42361;BME280;54542;51.562;0.004;2022-08-11T10:44:35;102134.61;;;23.72;31.88
42361;BME280;54542;51.562;0.004;2022-08-11T10:47:04;102128.98;;;23.14;31.99
42361;BME280;54542;51.562;0.004;2022-08-11T10:49:32;102123.29;;;24.11;31.66
42361;BME280;54542;51.562;0.004;2022-08-11T10:52:00;102124.44;;;24.34;31.38
42361;BME280;54542;51.562;0.004;2022-08-11T10:54:29;102117.98;;;24.50;30.79
42361;BME280;54542;51.562;0.004;2022-08-11T10:56:57;102114.84;;;23.64;31.23
42361;BME280;54542;51.562;0.004;2022-08-11T10:59:28;102119.78;;;23.75;30.65
42361;BME280;54542;51.562;0.004;2022-08-11T11:01:56;102118.40;;;24.83;29.84
42361;BME280;54542;51.562;0.004;2022-08-11T11:04:30;102117.03;;;24.77;29.34
42361;BME280;54542;51.562;0.004;2022-08-11T11:07:03;102112.86;;;24.49;29.48
42361;BME280;54542;51.562;0.004;2022-08-11T11:09:33;102117.00;;;24.89;28.48
42361;BME280;54542;51.562;0.004;2022-08-11T11:12:09;102104.85;;;25.30;28.04
42361;BME280;54542;51.562;0.004;2022-08-11T11:14:40;102109.15;;;26.02;26.65
42361;BME280;54542;51.562;0.004;2022-08-11T11:17:11;102107.51;;;26.43;26.27
42361;BME280;54542;51.562;0.004;2022-08-11T11:19:39;102097.59;;;26.38;26.40
42361;BME280;54542;51.562;0.004;2022-08-11T11:22:09;102098.98;;;27.61;25.81
42361;BME280;54542;51.562;0.004;2022-08-11T11:24:44;102107.10;;;27.11;25.14
42361;BME280;54542;51.562;0.004;2022-08-11T11:27:20;102102.75;;;27.95;23.85
42361;BME280;54542;51.562;0.004;2022-08-11T11:29:56;102096.92;;;29.01;23.44
42361;BME280;54542;51.562;0.004;2022-08-11T11:32:36;102094.96;;;29.13;22.77
42361;BME280;54542;51.562;0.004;2022-08-11T11:35:16;102096.34;;;29.69;23.04
42361;BME280;54542;51.562;0.004;2022-08-11T11:37:48;102088.52;;;30.22;22.86
42361;BME280;54542;51.562;0.004;2022-08-11T11:40:18;102085.77;;;31.01;21.72
42361;BME280;54542;51.562;0.004;2022-08-11T11:42:48;102087.28;;;29.66;21.41
42361;BME280;54542;51.562;0.004;2022-08-11T11:45:17;102084.34;;;31.37;21.00
42361;BME280;54542;51.562;0.004;2022-08-11T11:47:46;102080.56;;;30.87;21.07
42361;BME280;54542;51.562;0.004;2022-08-11T11:50:14;102076.87;;;31.94;20.41
42361;BME280;54542;51.562;0.004;2022-08-11T11:52:41;102072.97;;;32.50;19.23
42361;BME280;54542;51.562;0.004;2022-08-11T11:55:09;102074.01;;;31.37;19.22
42361;BME280;54542;51.562;0.004;2022-08-11T11:57:37;102075.09;;;32.79;18.42
42361;BME280;54542;51.562;0.004;2022-08-11T12:00:06;102073.45;;;34.03;18.93
42361;BME280;54542;51.562;0.004;2022-08-11T12:02:35;102073.64;;;33.54;18.26
42361;BME280;54542;51.562;0.004;2022-08-11T12:05:04;102067.77;;;33.54;17.67
42361;BME280;54542;51.562;0.004;2022-08-11T12:07:35;102064.21;;;35.50;17.63
42361;BME280;54542;51.562;0.004;2022-08-11T12:10:04;102054.81;;;35.31;16.59
42361;BME280;54542;51.562;0.004;2022-08-11T12:12:31;102056.27;;;34.52;16.71
